Time;durP1;ratioP1;P1;durP2;ratioP2;P2;SDS_P1;SDS_P2;PMS_P1;PMS_P2;Temp;Humidity;BMP_temperature;BMP_pressure;BME280_temperature;BME280_humidity;BME280_pressure;Samples;Min_cycle;Max_cycle;Signal;HPM_P1;HPM_P2
2022/06/02 04:02:44;;;;;;;;;;;;;;;;;;;;;
2022/06/02 04:05:57;;;;;;;12.97;10.63;;;12.60;99.90;;;;;;5013513;28;20272;-92
2022/06/02 04:09:20;;;;;;;;;;;;;;;;;;;;;
2022/06/02 04:15:36;;;;;;;;;;;;;;;;;;;;;
2022/06/02 04:18:08;;;;;;;15.70;10.47;;;12.70;99.90;;;;;;5013427;28;20194;-93
2022/06/02 04:21:18;;;;;;;15.07;9.80;;;12.60;99.90;;;;;;4996202;28;20275;-93
2022/06/02 04:24:22;;;;;;;;;;;;;;;;;;;;;
2022/06/02 04:27:48;;;;;;;14.80;10.57;;;12.60;99.90;;;;;;5013578;28;20176;-93
2022/06/02 04:30:28;;;;;;;;;;;;;;;;;;;;;
2022/06/02 04:33:13;;;;;;;14.37;10.77;;;12.60;99.90;;;;;;4994533;28;20175;-93
2022/06/02 04:35:54;;;;;;;16.33;11.13;;;12.80;99.90;;;;;;4976848;28;20179;-93
2022/06/02 04:42:27;;;;;;;;;;;;;;;;;;;;;
2022/06/02 04:45:21;;;;;;;;;;;;;;;;;;;;;
2022/06/02 04:48:23;;;;;;;15.60;11.20;;;12.90;99.90;;;;;;4978502;28;20185;-92
2022/06/02 04:52:00;;;;;;;15.20;11.43;;;13.00;99.90;;;;;;4960614;28;20192;-93
2022/06/02 04:58:51;;;;;;;;;;;;;;;;;;;;;
2022/06/02 05:05:26;;;;;;;;;;;;;;;;;;;;;
2022/06/02 05:12:06;;;;;;;;;;;;;;;;;;;;;
2022/06/02 05:15:47;;;;;;;;;;;;;;;;;;;;;
2022/06/02 05:19:13;;;;;;;;;;;;;;;;;;;;;
2022/06/02 05:22:25;;;;;;;15.50;10.40;;;13.90;99.90;;;;;;4899244;29;20188;-92
2022/06/02 06:27:34;;;;;;;16.93;12.57;;;15.70;99.90;;;;;;5988214;23;20178;-93
2022/06/02 06:30:41;;;;;;;17.87;13.73;;;15.60;99.90;;;;;;4997504;28;20193;-93
2022/06/02 08:53:53;;;;;;;4.57;3.60;;;18.90;94.30;;;;;;5863763;23;20234;-90
2022/06/02 10:17:49;;;;;;;6.17;4.30;;;20.00;91.80;;;;;;5398830;23;20605;-91
2022/06/02 10:20:50;;;;;;;6.07;4.03;;;20.00;91.60;;;;;;4985119;28;20198;-91
2022/06/02 10:23:39;;;;;;;6.57;3.83;;;20.10;91.50;;;;;;4977740;28;20677;-91
2022/06/02 10:26:39;;;;;;;4.67;3.33;;;20.20;91.50;;;;;;4977435;28;20190;-91
2022/06/02 10:29:29;;;;;;;5.70;3.10;;;20.20;91.50;;;;;;4979271;28;20196;-90
2022/06/02 10:32:32;;;;;;;4.63;3.50;;;20.40;91.40;;;;;;4978299;28;20650;-91
2022/06/02 10:35:04;;;;;;;4.20;3.50;;;20.40;91.20;;;;;;4990686;28;20188;-90
2022/06/02 10:37:55;;;;;;;4.47;3.20;;;20.30;91.20;;;;;;4977073;28;20630;-91
2022/06/02 10:40:27;;;;;;;3.73;3.30;;;20.40;91.00;;;;;;4980098;28;20193;-91
2022/06/02 10:43:38;;;;;;;5.43;3.40;;;20.40;91.40;;;;;;4979359;28;20209;-90
2022/06/02 10:46:23;;;;;;;4.70;3.40;;;20.70;91.00;;;;;;4977292;28;20280;-90
2022/06/02 10:49:14;;;;;;;5.40;3.67;;;20.90;90.60;;;;;;4948007;28;20285;-90
2022/06/02 10:52:17;;;;;;;6.33;3.10;;;21.10;90.30;;;;;;4977473;28;20699;-91
2022/06/02 10:54:55;;;;;;;5.50;3.17;;;21.20;90.00;;;;;;4965319;28;20324;-90
2022/06/02 10:57:44;;;;;;;5.40;2.90;;;21.40;89.10;;;;;;4990083;28;20193;-90
2022/06/02 11:00:47;;;;;;;2.77;2.57;;;21.70;87.60;;;;;;4958967;28;20199;-91
2022/06/02 11:03:25;;;;;;;3.70;3.10;;;21.70;88.00;;;;;;4959693;28;20225;-91
2022/06/02 11:06:11;;;;;;;3.40;2.57;;;21.80;87.60;;;;;;4977067;28;20180;-91
2022/06/02 11:08:40;;;;;;;5.87;3.33;;;21.90;88.10;;;;;;4976930;28;20679;-90
2022/06/02 11:11:12;;;;;;;4.20;3.80;;;22.10;85.80;;;;;;4958737;28;20194;-90
2022/06/02 11:14:03;;;;;;;3.90;3.60;;;22.10;85.60;;;;;;4960982;28;20571;-90
2022/06/02 11:16:51;;;;;;;3.30;2.67;;;22.00;85.30;;;;;;4977236;28;20205;-90
2022/06/02 11:19:41;;;;;;;5.60;3.00;;;22.00;86.10;;;;;;4976704;28;20185;-91
2022/06/02 11:22:28;;;;;;;4.47;2.57;;;22.20;86.20;;;;;;4972781;28;20194;-90
2022/06/02 11:25:29;;;;;;;3.87;3.50;;;22.50;85.30;;;;;;4974952;28;20190;-90
2022/06/02 11:28:03;;;;;;;3.83;3.20;;;23.10;84.20;;;;;;4958740;28;20190;-90
2022/06/02 11:30:50;;;;;;;4.43;2.97;;;24.20;82.00;;;;;;4971806;28;20699;-90
2022/06/02 11:33:34;;;;;;;5.87;2.80;;;25.20;80.70;;;;;;4976631;28;20239;-91
2022/06/02 11:36:29;;;;;;;2.27;2.03;;;26.20;78.90;;;;;;4977353;28;20308;-90
2022/06/02 11:39:33;;;;;;;3.33;1.97;;;27.20;76.90;;;;;;4967110;28;20551;-91
2022/06/02 11:42:13;;;;;;;2.00;1.67;;;28.50;72.50;;;;;;4977455;28;20202;-91
2022/06/02 11:45:18;;;;;;;3.88;2.22;;;29.60;71.80;;;;;;4977256;28;20198;-91
2022/06/02 11:48:14;;;;;;;2.88;2.05;;;30.60;67.80;;;;;;4976747;28;20214;-92
2022/06/02 11:50:45;;;;;;;2.67;2.05;;;31.30;64.50;;;;;;4977870;28;20181;-91
2022/06/02 11:53:21;;;;;;;2.78;1.80;;;31.80;63.40;;;;;;4978477;28;20221;-91
2022/06/02 11:55:49;;;;;;;3.67;2.38;;;32.50;62.70;;;;;;4983478;28;20204;-91
2022/06/02 11:58:30;;;;;;;2.63;1.90;;;33.10;60.40;;;;;;4991172;28;20201;-91
2022/06/02 12:01:12;;;;;;;2.67;1.95;;;33.60;60.10;;;;;;4987798;28;20178;-91
2022/06/02 12:04:00;;;;;;;1.98;1.75;;;33.80;57.90;;;;;;4977203;28;20344;-91
2022/06/02 12:06:28;;;;;;;2.97;1.80;;;34.40;56.70;;;;;;4977139;28;20268;-92
2022/06/02 12:08:57;;;;;;;1.80;1.70;;;34.60;55.60;;;;;;4977042;28;20185;-90
2022/06/02 12:11:59;;;;;;;2.03;1.48;;;34.60;55.30;;;;;;4977302;28;20188;-90
2022/06/02 12:15:06;;;;;;;6.70;2.03;;;34.60;55.20;;;;;;4941424;28;20216;-90
2022/06/02 12:18:03;;;;;;;1.92;1.73;;;35.70;53.70;;;;;;4966333;28;20225;-91
2022/06/02 12:21:00;;;;;;;3.15;2.53;;;35.80;53.20;;;;;;4976692;28;20185;-90
2022/06/02 12:23:35;;;;;;;2.58;1.80;;;36.50;52.40;;;;;;4976664;28;20221;-90
2022/06/02 12:26:15;;;;;;;2.40;1.60;;;35.70;52.80;;;;;;4977159;28;20181;-91
2022/06/02 12:28:55;;;;;;;2.45;1.67;;;35.90;52.40;;;;;;4976648;28;20277;-91
2022/06/02 12:31:27;;;;;;;1.73;1.63;;;36.50;51.80;;;;;;4976553;28;20181;-89
2022/06/02 12:34:02;;;;;;;1.58;1.30;;;37.10;50.50;;;;;;4976968;28;20204;-88
2022/06/02 12:36:39;;;;;;;1.67;1.40;;;37.30;50.00;;;;;;4976765;28;20185;-89
2022/06/02 12:39:23;;;;;;;3.20;2.22;;;37.80;50.20;;;;;;4976937;28;20174;-90
2022/06/02 12:41:55;;;;;;;2.28;2.00;;;38.40;48.50;;;;;;4976686;28;20682;-87
2022/06/02 12:44:33;;;;;;;3.78;2.10;;;37.70;48.30;;;;;;4976679;28;20249;-91
2022/06/02 12:47:11;;;;;;;1.73;1.63;;;37.80;48.40;;;;;;4976752;28;20217;-88
2022/06/02 12:49:46;;;;;;;2.88;2.03;;;37.70;48.50;;;;;;4976529;28;20189;-91
2022/06/02 12:52:45;;;;;;;2.72;1.95;;;38.20;47.80;;;;;;4976765;28;20208;-90
2022/06/02 12:55:21;;;;;;;4.65;1.63;;;38.10;47.30;;;;;;4976404;28;20198;-88
2022/06/02 12:58:05;;;;;;;1.67;1.15;;;38.20;47.80;;;;;;4977188;28;20243;-88
2022/06/02 13:00:42;;;;;;;3.15;1.15;;;38.50;47.60;;;;;;4980326;28;20204;-91
2022/06/02 13:03:35;;;;;;;3.33;1.48;;;39.00;46.70;;;;;;4980135;28;20233;-91
2022/06/02 13:06:30;;;;;;;1.60;1.50;;;39.50;45.80;;;;;;4979564;28;20272;-90
2022/06/02 13:09:22;;;;;;;2.15;1.60;;;39.00;46.10;;;;;;4927969;28;20181;-91
2022/06/02 13:12:23;;;;;;;4.53;1.70;;;38.80;46.30;;;;;;4979749;28;20556;-89
2022/06/02 13:15:07;;;;;;;4.38;2.80;;;39.10;46.10;;;;;;4980161;28;20182;-89
2022/06/02 13:17:38;;;;;;;2.80;1.50;;;39.00;46.00;;;;;;4979405;28;20205;-91
2022/06/02 13:20:22;;;;;;;3.75;1.45;;;39.10;45.70;;;;;;4979799;28;20177;-91
2022/06/02 13:23:25;;;;;;;2.60;1.40;;;39.40;45.40;;;;;;4979857;28;20682;-90
2022/06/02 13:26:18;;;;;;;2.45;1.65;;;39.70;45.40;;;;;;4979415;28;20650;-91
2022/06/02 13:28:50;;;;;;;1.50;1.40;;;40.20;44.40;;;;;;4979724;28;20213;-91
2022/06/02 13:31:39;;;;;;;1.70;1.60;;;39.70;44.20;;;;;;4996489;28;20170;-90
2022/06/02 13:34:28;;;;;;;3.20;1.40;;;40.10;44.40;;;;;;4940152;28;20185;-91
2022/06/02 13:36:57;;;;;;;2.05;1.50;;;40.40;44.00;;;;;;4979106;28;20193;-91
2022/06/02 13:39:40;;;;;;;3.45;1.08;;;40.60;43.50;;;;;;4979494;28;20630;-92
2022/06/02 13:42:21;;;;;;;2.08;1.20;;;41.00;43.40;;;;;;4979033;28;20206;-91
2022/06/02 13:44:56;;;;;;;2.20;1.88;;;41.10;43.30;;;;;;4978978;28;20205;-92
2022/06/02 13:47:37;;;;;;;1.92;1.60;;;41.30;43.20;;;;;;4978771;28;20528;-90
2022/06/02 13:50:41;;;;;;;2.00;1.50;;;41.30;42.90;;;;;;4979009;28;20216;-91
2022/06/02 13:53:07;;;;;;;2.53;1.10;;;41.10;42.60;;;;;;4939931;28;20182;-91
2022/06/02 13:58:54;;;;;;;1.67;1.20;;;41.50;42.70;;;;;;4996164;28;20188;-89
2022/06/02 14:01:38;;;;;;;1.67;1.40;;;41.60;42.30;;;;;;4978988;28;20219;-89
2022/06/02 14:04:34;;;;;;;2.97;0.98;;;41.70;41.60;;;;;;4978992;28;20219;-92
2022/06/02 14:07:16;;;;;;;2.25;1.38;;;41.40;41.70;;;;;;4978901;28;20182;-92
2022/06/02 14:09:54;;;;;;;1.75;1.20;;;41.80;41.80;;;;;;4977908;28;20565;-92
2022/06/02 14:12:56;;;;;;;1.27;0.85;;;41.70;41.70;;;;;;4978722;28;20189;-91
2022/06/02 14:16:01;;;;;;;0.98;0.80;;;41.40;41.70;;;;;;4917159;29;20189;-91
2022/06/02 14:18:27;;;;;;;2.42;1.20;;;41.80;41.60;;;;;;4959093;28;20296;-89
2022/06/02 14:21:15;;;;;;;1.75;1.08;;;41.90;41.40;;;;;;4978794;28;20636;-90
2022/06/02 14:23:59;;;;;;;2.70;1.08;;;41.60;41.20;;;;;;4978389;28;20235;-89
2022/06/02 14:27:00;;;;;;;1.77;0.98;;;41.70;41.30;;;;;;4978539;28;20186;-91
2022/06/02 14:29:44;;;;;;;1.83;1.10;;;41.90;41.20;;;;;;4978162;28;20214;-91
2022/06/02 14:32:28;;;;;;;2.72;1.40;;;42.00;41.10;;;;;;4978401;28;20240;-90
2022/06/02 14:35:16;;;;;;;3.10;1.27;;;42.20;40.20;;;;;;4978442;28;20188;-91
2022/06/02 14:37:55;;;;;;;1.52;1.23;;;41.70;40.30;;;;;;4978165;28;20671;-91
2022/06/02 14:40:27;;;;;;;1.75;1.20;;;41.10;41.90;;;;;;4978309;28;20182;-91
2022/06/02 14:43:05;;;;;;;2.13;1.10;;;41.20;40.70;;;;;;4978379;28;20301;-91
2022/06/02 14:45:37;;;;;;;2.10;1.20;;;41.30;40.50;;;;;;4977886;28;20212;-91
2022/06/02 14:48:19;;;;;;;1.10;1.00;;;40.90;40.90;;;;;;4978210;28;20182;-91
2022/06/02 14:51:10;;;;;;;2.35;1.17;;;41.30;40.90;;;;;;4978323;28;20244;-91
2022/06/02 14:53:47;;;;;;;1.77;1.30;;;41.70;40.40;;;;;;4995201;28;20193;-92
2022/06/02 14:56:31;;;;;;;4.43;1.33;;;41.60;40.90;;;;;;4977757;28;20181;-91
2022/06/02 14:59:00;;;;;;;1.77;0.90;;;41.60;40.50;;;;;;4977784;28;20192;-91
2022/06/02 15:01:25;;;;;;;2.40;0.73;;;41.60;40.80;;;;;;4978113;28;20655;-92
2022/06/02 15:04:26;;;;;;;1.15;1.00;;;41.90;40.60;;;;;;4977833;28;20221;-91
2022/06/02 15:06:53;;;;;;;2.00;0.88;;;41.70;40.40;;;;;;4978095;28;20542;-91
2022/06/02 15:09:44;;;;;;;1.50;1.20;;;41.50;40.20;;;;;;4977774;28;20184;-92
2022/06/02 15:12:19;;;;;;;2.25;1.20;;;40.90;40.40;;;;;;4973960;28;20182;-91
2022/06/02 15:15:07;;;;;;;3.38;1.08;;;40.50;40.40;;;;;;4977494;28;20177;-92
2022/06/02 15:17:57;;;;;;;1.92;1.30;;;41.00;40.30;;;;;;4977764;28;20217;-91
2022/06/02 15:20:56;;;;;;;2.53;1.10;;;41.10;40.10;;;;;;4977489;28;20650;-91
2022/06/02 15:23:40;;;;;;;2.33;1.20;;;41.20;40.60;;;;;;4977405;28;20682;-91
2022/06/02 15:26:21;;;;;;;1.63;1.02;;;41.50;40.20;;;;;;4977593;28;20276;-92
2022/06/02 15:29:09;;;;;;;2.47;1.20;;;41.60;39.90;;;;;;4977077;28;20181;-92
2022/06/02 15:32:03;;;;;;;1.70;1.25;;;41.50;39.40;;;;;;4977428;28;20189;-88
2022/06/02 15:34:29;;;;;;;3.20;1.40;;;40.80;40.00;;;;;;4966213;28;20190;-90
2022/06/02 15:37:19;;;;;;;1.42;1.10;;;40.60;40.40;;;;;;4977303;28;20229;-89
2022/06/02 15:40:21;;;;;;;1.25;1.10;;;40.70;40.20;;;;;;4977187;28;20213;-92
2022/06/02 15:43:12;;;;;;;2.30;0.90;;;41.00;40.10;;;;;;4977226;28;20271;-92
2022/06/02 15:46:00;;;;;;;1.90;0.90;;;41.30;40.00;;;;;;4977237;28;20170;-90
2022/06/02 15:48:29;;;;;;;4.05;1.02;;;41.20;40.10;;;;;;4977108;28;20185;-90
2022/06/02 15:51:10;;;;;;;2.00;0.90;;;41.10;39.90;;;;;;4977406;28;20261;-89
2022/06/02 15:53:57;;;;;;;1.90;0.95;;;41.00;40.00;;;;;;4977394;28;20639;-90
2022/06/02 15:57:01;;;;;;;1.95;1.02;;;41.00;40.30;;;;;;4977023;28;20185;-91
2022/06/02 15:59:44;;;;;;;1.95;0.70;;;41.00;40.40;;;;;;4977235;28;20185;-88
2022/06/02 16:02:41;;;;;;;4.07;1.35;;;40.90;40.10;;;;;;4977457;28;20182;-89
2022/06/02 16:05:51;;;;;;;1.13;0.90;;;40.50;40.00;;;;;;4978051;28;20685;-90
2022/06/02 16:08:43;;;;;;;1.23;0.95;;;40.30;40.30;;;;;;4959432;28;20181;-91
2022/06/02 16:11:30;;;;;;;1.25;1.10;;;39.70;40.70;;;;;;4980266;28;20186;-92
2022/06/02 16:14:22;;;;;;;2.38;0.70;;;39.30;41.20;;;;;;4981877;28;20182;-91
2022/06/02 16:17:06;;;;;;;1.67;1.02;;;39.30;41.00;;;;;;4980933;28;20198;-92
2022/06/02 16:20:14;;;;;;;1.73;1.20;;;39.40;40.80;;;;;;4988847;28;20174;-92
2022/06/02 16:23:18;;;;;;;4.28;1.27;;;39.30;41.00;;;;;;4990514;28;20201;-92
2022/06/02 16:25:56;;;;;;;1.67;0.63;;;39.50;40.80;;;;;;4979367;28;20188;-92
2022/06/02 16:28:47;;;;;;;3.45;1.25;;;39.50;41.20;;;;;;4977453;28;20190;-92
2022/06/02 16:31:36;;;;;;;1.92;1.00;;;39.40;40.60;;;;;;4977390;28;20182;-92
2022/06/02 16:34:16;;;;;;;1.83;1.23;;;39.20;40.90;;;;;;4980045;28;20189;-92
2022/06/02 16:37:14;;;;;;;3.17;1.30;;;38.70;40.50;;;;;;4981196;28;20184;-92
2022/06/02 16:40:16;;;;;;;1.55;1.08;;;38.10;40.50;;;;;;4998258;28;20236;-92
2022/06/02 16:42:55;;;;;;;1.42;0.90;;;37.60;40.80;;;;;;4980797;28;20324;-93
2022/06/02 16:45:30;;;;;;;2.72;1.13;;;37.40;41.50;;;;;;4981138;28;20734;-94
2022/06/02 16:51:57;;;;;;;2.05;1.20;;;37.70;41.20;;;;;;5014619;28;20674;-96
2022/06/02 16:55:04;;;;;;;2.17;1.00;;;37.80;41.20;;;;;;4998721;28;20185;-96
2022/06/02 16:57:44;;;;;;;2.00;1.10;;;37.50;41.70;;;;;;4994251;28;20193;-96
2022/06/02 17:00:38;;;;;;;2.03;1.05;;;37.40;41.20;;;;;;4985924;28;20177;-96
2022/06/02 17:03:45;;;;;;;1.15;0.80;;;37.20;41.20;;;;;;4983989;28;20213;-96
2022/06/02 17:06:49;;;;;;;1.20;0.93;;;37.00;41.40;;;;;;4982095;28;20249;-96
2022/06/02 17:09:17;;;;;;;1.38;0.70;;;36.80;41.00;;;;;;4981615;28;20196;-96
2022/06/02 17:12:12;;;;;;;0.80;0.55;;;36.90;40.90;;;;;;4981797;28;20188;-96
2022/06/02 17:14:45;;;;;;;1.35;0.90;;;36.80;41.10;;;;;;4967455;28;20193;-96
2022/06/02 17:17:43;;;;;;;2.03;1.00;;;36.80;41.10;;;;;;4980755;28;20197;-96
2022/06/02 17:20:49;;;;;;;1.35;0.80;;;36.80;40.80;;;;;;4980875;28;20205;-96
2022/06/02 17:23:26;;;;;;;2.65;0.90;;;36.60;40.80;;;;;;4980382;28;20216;-96
2022/06/02 17:26:05;;;;;;;2.90;0.90;;;36.60;40.90;;;;;;4981694;28;20545;-96
2022/06/02 17:28:56;;;;;;;1.60;0.90;;;36.60;41.00;;;;;;4980653;28;20201;-96
2022/06/02 17:31:43;;;;;;;2.60;0.75;;;36.40;41.10;;;;;;4981810;28;20190;-96
2022/06/02 17:34:34;;;;;;;2.05;0.90;;;36.20;40.80;;;;;;4982421;28;20202;-95
2022/06/02 17:37:28;;;;;;;1.23;0.63;;;36.20;41.00;;;;;;4981723;28;20177;-96
2022/06/02 17:40:18;;;;;;;1.63;1.35;;;36.10;41.20;;;;;;4981516;28;20598;-95
2022/06/02 17:43:03;;;;;;;2.58;1.80;;;35.90;41.20;;;;;;4983212;28;20315;-95
2022/06/02 17:45:37;;;;;;;2.00;1.10;;;35.50;41.40;;;;;;4980410;28;20174;-94
2022/06/02 17:48:16;;;;;;;2.22;1.20;;;35.20;41.60;;;;;;4982193;28;20236;-95
2022/06/02 17:50:57;;;;;;;0.90;0.88;;;35.10;41.20;;;;;;4983226;28;20265;-92
2022/06/02 17:53:44;;;;;;;1.13;1.00;;;35.00;41.50;;;;;;4982109;28;20178;-96
2022/06/02 17:56:53;;;;;;;3.45;1.60;;;34.70;41.50;;;;;;4981467;28;20649;-95
2022/06/02 17:59:33;;;;;;;3.20;0.93;;;34.50;41.80;;;;;;4979792;28;20227;-96
2022/06/02 18:02:06;;;;;;;1.63;0.90;;;34.50;41.60;;;;;;4980902;28;20170;-95
2022/06/02 18:08:22;;;;;;;1.50;0.85;;;34.30;41.50;;;;;;5017142;28;20222;-95
2022/06/02 18:11:25;;;;;;;1.08;0.85;;;34.00;41.40;;;;;;4979552;28;20182;-93
2022/06/02 18:14:25;;;;;;;2.25;1.52;;;34.00;41.90;;;;;;4979631;28;20174;-92
2022/06/02 18:17:23;;;;;;;1.92;1.23;;;33.90;41.90;;;;;;4980181;28;20198;-91
2022/06/02 18:20:03;;;;;;;1.92;0.70;;;33.70;41.50;;;;;;4979172;28;20196;-92
2022/06/02 18:23:01;;;;;;;1.45;0.68;;;33.60;41.70;;;;;;4979409;28;20188;-91
2022/06/02 18:25:36;;;;;;;0.70;0.70;;;33.40;41.50;;;;;;4996451;28;20182;-91
2022/06/02 18:29:06;;;;;;;1.70;0.50;;;33.20;42.10;;;;;;4979301;28;20188;-92
2022/06/02 18:32:07;;;;;;;1.17;0.80;;;33.10;42.00;;;;;;4953253;28;20189;-91
2022/06/02 18:34:43;;;;;;;0.75;0.63;;;33.00;42.10;;;;;;4979063;28;20189;-91
2022/06/02 18:37:35;;;;;;;0.68;0.68;;;32.90;42.20;;;;;;4978646;28;20702;-93
2022/06/02 18:40:32;;;;;;;0.80;0.60;;;32.70;42.40;;;;;;4978750;28;20220;-91
2022/06/02 18:43:14;;;;;;;1.17;0.70;;;32.50;42.90;;;;;;4974013;28;20749;-92
2022/06/02 18:46:24;;;;;;;1.47;0.90;;;32.30;43.10;;;;;;4976491;28;20171;-90
2022/06/02 18:48:50;;;;;;;1.40;1.10;;;32.10;43.60;;;;;;4879392;29;20250;-92
2022/06/02 18:51:22;;;;;;;3.47;0.60;;;32.00;43.70;;;;;;4894037;29;20197;-91
2022/06/02 18:54:08;;;;;;;0.97;0.77;;;31.80;43.80;;;;;;4963108;28;20182;-91
2022/06/02 18:56:50;;;;;;;3.73;0.73;;;31.30;44.40;;;;;;4958930;28;20182;-91
2022/06/02 18:59:44;;;;;;;1.97;0.70;;;30.80;44.90;;;;;;4959164;28;20269;-91
2022/06/02 19:02:41;;;;;;;2.03;1.10;;;30.50;45.80;;;;;;4958971;28;20179;-90
2022/06/02 19:05:24;;;;;;;2.50;0.93;;;30.30;45.70;;;;;;4958921;28;20712;-92
2022/06/02 19:14:33;;;;;;;2.27;0.93;;;29.20;46.80;;;;;;4976255;28;20170;-91
2022/06/02 19:17:17;;;;;;;2.43;0.80;;;29.00;47.30;;;;;;4975009;28;20229;-91
2022/06/02 19:20:03;;;;;;;2.90;1.00;;;28.80;47.80;;;;;;4964012;28;20190;-91
2022/06/02 19:22:50;;;;;;;6.47;1.10;;;28.90;48.10;;;;;;4984451;28;20182;-91
2022/06/02 19:25:19;;;;;;;2.77;0.87;;;28.70;48.30;;;;;;4967685;28;20201;-91
2022/06/02 19:28:14;;;;;;;8.37;1.27;;;28.30;48.80;;;;;;5002258;28;20649;-90
2022/06/02 19:30:52;;;;;;;4.20;1.10;;;28.10;49.00;;;;;;4976829;28;20181;-90
2022/06/02 19:33:54;;;;;;;2.00;1.00;;;28.00;49.50;;;;;;4981076;28;20643;-95
2022/06/02 19:36:54;;;;;;;1.77;1.13;;;28.00;49.10;;;;;;4965004;28;20251;-96
2022/06/02 19:39:58;;;;;;;2.00;0.80;;;28.00;49.40;;;;;;4961257;28;20217;-96
2022/06/02 19:42:50;;;;;;;3.17;0.97;;;27.90;49.60;;;;;;4978448;28;20209;-96
2022/06/02 19:45:29;;;;;;;2.27;1.30;;;27.60;49.90;;;;;;4962153;28;20179;-93
2022/06/02 19:48:24;;;;;;;2.50;1.30;;;27.60;50.00;;;;;;4958813;28;20198;-92
2022/06/02 19:51:11;;;;;;;3.00;0.97;;;27.50;50.40;;;;;;4958734;28;20225;-92
2022/06/02 19:54:18;;;;;;;3.03;1.03;;;27.50;50.00;;;;;;4958638;28;20181;-91
2022/06/02 19:56:56;;;;;;;2.30;1.23;;;27.40;50.40;;;;;;4972101;28;20174;-91
2022/06/02 19:59:32;;;;;;;4.23;1.30;;;27.00;51.00;;;;;;4958522;28;20206;-91
2022/06/02 20:02:41;;;;;;;1.63;1.30;;;27.00;51.40;;;;;;4958781;28;20189;-91
2022/06/02 20:05:20;;;;;;;5.03;1.50;;;26.90;51.20;;;;;;4958167;28;20205;-91
2022/06/02 20:07:58;;;;;;;2.20;1.30;;;26.60;51.80;;;;;;4993362;28;20205;-91
2022/06/02 20:10:36;;;;;;;4.83;1.30;;;26.60;52.00;;;;;;4978062;28;20220;-91
2022/06/02 20:13:16;;;;;;;2.70;1.10;;;26.70;51.70;;;;;;4977924;28;20198;-93
2022/06/02 20:15:48;;;;;;;4.47;1.40;;;26.40;52.30;;;;;;4977881;28;20204;-92
2022/06/02 20:18:34;;;;;;;3.70;1.50;;;26.10;52.80;;;;;;4968253;28;20270;-90
2022/06/02 20:21:32;;;;;;;1.83;1.33;;;26.00;53.10;;;;;;4965685;28;20253;-93
2022/06/02 20:24:10;;;;;;;3.23;1.20;;;25.90;53.20;;;;;;4940473;28;20217;-91
2022/06/02 20:26:53;;;;;;;3.23;1.53;;;25.90;53.40;;;;;;4978562;28;20190;-92
2022/06/02 20:29:54;;;;;;;3.43;1.57;;;25.70;53.80;;;;;;4977599;28;20638;-92
2022/06/02 20:32:46;;;;;;;2.23;1.30;;;25.70;53.90;;;;;;4976032;28;20194;-91
2022/06/02 20:35:19;;;;;;;1.87;1.40;;;25.50;54.20;;;;;;4976336;28;20181;-91
2022/06/02 20:38:05;;;;;;;6.03;1.70;;;25.30;54.00;;;;;;4980403;28;20178;-91
2022/06/02 20:40:49;;;;;;;1.90;1.27;;;25.30;54.20;;;;;;4980145;28;20177;-88
2022/06/02 20:43:30;;;;;;;4.77;1.63;;;25.40;54.10;;;;;;4977445;28;20252;-89
2022/06/02 20:46:20;;;;;;;1.70;1.40;;;25.50;54.10;;;;;;4975786;28;20439;-91
2022/06/02 20:48:54;;;;;;;2.47;1.73;;;25.40;54.10;;;;;;4980245;28;20178;-90
2022/06/02 20:51:39;;;;;;;2.33;1.60;;;25.30;54.40;;;;;;4964337;28;20173;-90
2022/06/02 20:54:31;;;;;;;3.23;1.60;;;25.20;54.60;;;;;;4976702;28;20240;-90
2022/06/02 20:57:21;;;;;;;3.80;2.23;;;25.00;54.80;;;;;;4941878;28;20183;-90
2022/06/02 20:59:56;;;;;;;2.63;2.37;;;25.00;54.70;;;;;;4967000;28;20206;-90
2022/06/02 21:02:56;;;;;;;7.17;2.53;;;24.80;54.80;;;;;;4973768;28;20181;-91
2022/06/02 21:05:31;;;;;;;4.60;2.20;;;24.80;54.80;;;;;;4973436;28;20205;-91
2022/06/02 21:08:37;;;;;;;5.70;2.80;;;24.80;54.90;;;;;;4977659;28;20169;-91
2022/06/02 21:11:15;;;;;;;4.10;2.77;;;24.80;54.60;;;;;;4976303;28;20268;-88
2022/06/02 21:13:59;;;;;;;5.43;3.00;;;24.80;54.70;;;;;;4965621;28;20173;-90
2022/06/02 21:16:34;;;;;;;5.67;3.00;;;24.90;54.60;;;;;;4973278;28;20179;-90
2022/06/02 21:19:02;;;;;;;3.97;2.50;;;24.60;54.80;;;;;;4974292;28;20197;-91
2022/06/02 21:21:33;;;;;;;5.23;3.43;;;24.70;54.90;;;;;;4977077;28;20174;-95
2022/06/02 21:24:10;;;;;;;4.53;2.80;;;24.50;55.20;;;;;;4965674;28;20217;-93
2022/06/02 21:26:51;;;;;;;4.47;2.80;;;24.30;55.60;;;;;;4985677;28;20187;-93
2022/06/02 21:29:23;;;;;;;6.57;3.20;;;24.10;56.00;;;;;;4963433;28;20281;-94
2022/06/02 21:31:50;;;;;;;6.33;2.83;;;24.00;56.10;;;;;;4993745;28;20169;-96
2022/06/02 21:34:17;;;;;;;3.10;2.53;;;24.10;55.70;;;;;;4964076;28;20182;-94
2022/06/02 21:37:05;;;;;;;5.80;2.77;;;24.10;55.80;;;;;;4959800;28;20186;-94
2022/06/02 21:39:41;;;;;;;5.73;3.00;;;24.10;56.00;;;;;;4960401;28;20181;-92
2022/06/02 21:42:17;;;;;;;6.07;3.03;;;23.60;57.00;;;;;;4960441;28;20201;-94
2022/06/02 21:45:09;;;;;;;8.47;3.23;;;23.50;57.10;;;;;;4963799;28;20711;-89
2022/06/02 21:47:55;;;;;;;4.60;2.80;;;23.50;57.40;;;;;;4979033;28;20173;-93
2022/06/02 21:50:31;;;;;;;4.33;3.00;;;23.50;57.30;;;;;;4977434;28;20177;-89
2022/06/02 21:53:07;;;;;;;5.57;3.27;;;23.30;57.40;;;;;;4978839;28;20162;-90
2022/06/02 21:55:47;;;;;;;4.53;3.27;;;23.30;57.50;;;;;;4977628;28;20218;-89
2022/06/02 21:58:51;;;;;;;4.30;3.30;;;23.40;57.50;;;;;;4959678;28;20222;-94
2022/06/02 22:01:25;;;;;;;4.50;3.23;;;23.30;57.50;;;;;;4912829;28;20242;-95
2022/06/02 22:04:28;;;;;;;5.20;3.37;;;23.20;57.80;;;;;;4964970;28;20753;-95
2022/06/02 22:06:56;;;;;;;3.43;2.97;;;23.20;57.80;;;;;;4961386;28;20636;-95
2022/06/02 22:09:49;;;;;;;4.93;3.60;;;23.10;58.20;;;;;;4964334;28;20265;-94
2022/06/02 22:12:26;;;;;;;7.70;3.67;;;23.10;58.30;;;;;;4977797;28;20216;-94
2022/06/02 22:14:59;;;;;;;5.20;3.63;;;22.90;58.60;;;;;;4978212;28;20236;-95
2022/06/02 22:17:51;;;;;;;5.80;3.47;;;22.70;59.10;;;;;;4978211;28;20197;-95
2022/06/02 22:20:28;;;;;;;7.80;3.50;;;22.30;60.00;;;;;;4970920;28;20189;-95
2022/06/02 22:23:04;;;;;;;6.30;2.87;;;22.30;60.90;;;;;;4977986;28;20255;-94
2022/06/02 22:26:02;;;;;;;4.23;3.10;;;22.20;60.70;;;;;;4976738;28;20541;-94
2022/06/02 22:28:56;;;;;;;4.73;3.33;;;22.60;60.30;;;;;;4977173;28;20182;-94
2022/06/02 22:31:54;;;;;;;6.13;3.33;;;22.10;61.20;;;;;;4978025;28;20173;-94
2022/06/02 22:34:29;;;;;;;5.23;3.57;;;22.20;61.10;;;;;;4974260;28;20184;-95
2022/06/02 22:37:13;;;;;;;4.33;3.50;;;21.80;61.70;;;;;;4966561;28;20202;-93
2022/06/02 22:40:06;;;;;;;7.77;3.80;;;21.90;61.60;;;;;;4965902;28;20277;-95
2022/06/02 22:42:55;;;;;;;5.73;3.87;;;22.20;61.10;;;;;;4958588;28;20208;-94
2022/06/02 22:45:42;;;;;;;6.83;3.67;;;22.10;61.00;;;;;;4959158;28;20198;-95
2022/06/02 22:48:26;;;;;;;11.97;4.27;;;22.20;60.70;;;;;;4965899;28;20170;-95
2022/06/02 22:51:22;;;;;;;6.27;3.63;;;21.90;61.60;;;;;;4976643;28;20178;-94
2022/06/02 22:54:05;;;;;;;4.97;3.47;;;22.00;61.50;;;;;;4978207;28;20209;-94
2022/06/02 22:57:16;;;;;;;5.87;4.17;;;21.90;61.70;;;;;;4973313;28;20560;-94
2022/06/02 23:00:01;;;;;;;6.67;4.07;;;22.00;61.70;;;;;;4925974;28;20198;-94
2022/06/02 23:02:35;;;;;;;6.33;3.67;;;21.80;61.80;;;;;;4976454;28;20213;-93
2022/06/02 23:05:19;;;;;;;6.13;3.73;;;21.70;61.90;;;;;;4961307;28;20183;-94
2022/06/02 23:08:19;;;;;;;5.23;4.17;;;21.70;62.30;;;;;;4958240;28;20190;-94
2022/06/02 23:11:00;;;;;;;5.27;4.13;;;21.50;62.80;;;;;;4976981;28;20589;-91
2022/06/02 23:13:59;;;;;;;5.07;3.93;;;21.30;63.20;;;;;;4972053;28;20261;-89
2022/06/02 23:16:40;;;;;;;6.53;3.87;;;21.60;62.90;;;;;;4973921;28;20185;-93
2022/06/02 23:19:43;;;;;;;6.13;4.03;;;21.50;63.00;;;;;;4977939;28;20189;-94
2022/06/02 23:22:11;;;;;;;5.67;3.57;;;21.20;63.30;;;;;;4967398;28;20174;-94
2022/06/02 23:25:04;;;;;;;4.93;3.67;;;21.20;63.60;;;;;;4969865;28;20582;-92
2022/06/02 23:27:50;;;;;;;3.93;3.53;;;21.20;63.80;;;;;;4970847;28;20174;-93
2022/06/02 23:30:43;;;;;;;4.57;3.67;;;21.20;63.90;;;;;;4968324;28;20279;-94
2022/06/02 23:33:33;;;;;;;3.90;3.40;;;21.10;64.00;;;;;;4958416;28;20178;-93
2022/06/02 23:36:32;;;;;;;4.70;4.17;;;20.90;64.70;;;;;;4959697;28;20269;-93
2022/06/02 23:39:55;;;;;;;5.53;3.90;;;20.70;64.70;;;;;;4971016;28;20181;-92
2022/06/02 23:45:57;;;;;;;3.70;3.27;;;20.70;65.40;;;;;;4991676;28;20200;-94
2022/06/02 23:48:50;;;;;;;3.97;3.50;;;20.80;65.30;;;;;;4974575;28;20192;-94
2022/06/02 23:51:45;;;;;;;4.07;3.47;;;20.70;65.50;;;;;;4977281;28;20193;-94
2022/06/02 23:54:42;;;;;;;4.93;3.63;;;20.50;66.10;;;;;;4977522;28;20638;-94
2022/06/02 23:57:28;;;;;;;5.73;3.60;;;20.60;66.10;;;;;;4975293;28;20197;-94
